createdAt,value
2019-02-20T00:00:15.838Z,12.90
2019-02-20T00:02:45.234Z,8.17
2019-02-20T00:05:13.448Z,15.10
2019-02-20T00:07:41.275Z,11.23
2019-02-20T00:10:09.066Z,12.30
2019-02-20T00:12:39.100Z,13.20
2019-02-20T00:15:06.567Z,12.37
2019-02-20T00:17:34.535Z,11.33
2019-02-20T00:20:02.001Z,13.20
2019-02-20T00:22:39.821Z,11.80
2019-02-20T00:25:01.192Z,11.00
2019-02-20T00:27:31.410Z,9.90
2019-02-20T00:29:58.933Z,11.30
2019-02-20T00:32:26.734Z,9.27
2019-02-20T00:34:54.278Z,13.90
2019-02-20T00:37:22.650Z,10.70
2019-02-20T00:39:50.911Z,13.47
2019-02-20T00:42:18.440Z,10.90
2019-02-20T00:45:05.578Z,15.67
2019-02-20T00:47:55.521Z,9.47
2019-02-20T00:50:25.705Z,12.87
2019-02-20T00:53:12.705Z,14.57
2019-02-20T00:55:40.594Z,11.20
2019-02-20T00:58:08.555Z,13.50
2019-02-20T01:00:39.021Z,14.60
2019-02-20T01:03:06.577Z,15.00
2019-02-20T01:05:34.055Z,13.83
2019-02-20T01:08:01.507Z,13.73
2019-02-20T01:10:29.057Z,10.57
2019-02-20T01:12:56.626Z,9.90
2019-02-20T01:15:24.265Z,13.63
2019-02-20T01:17:51.715Z,13.87
2019-02-20T01:20:19.286Z,10.07
2019-02-20T01:22:46.780Z,9.57
2019-02-20T01:25:14.343Z,11.13
2019-02-20T01:27:42.045Z,10.80
2019-02-20T01:30:12.235Z,11.57
2019-02-20T01:32:40.100Z,11.73
2019-02-20T01:35:08.989Z,15.50
2019-02-20T01:37:38.485Z,13.17
2019-02-20T01:40:06.093Z,13.53
2019-02-20T01:42:33.617Z,9.83
2019-02-20T01:45:01.518Z,13.57
2019-02-20T01:47:29.978Z,8.50
2019-02-20T01:49:57.910Z,11.40
2019-02-20T01:52:28.444Z,9.03
2019-02-20T01:54:58.702Z,13.13
2019-02-20T01:57:26.343Z,11.57
2019-02-20T01:59:54.990Z,12.77
2019-02-20T02:02:22.493Z,13.90
2019-02-20T02:04:51.894Z,12.43
2019-02-20T02:07:19.486Z,10.27
2019-02-20T02:09:50.499Z,12.07
2019-02-20T02:12:19.271Z,14.40
2019-02-20T02:14:47.465Z,16.10
2019-02-20T02:17:14.924Z,18.37
2019-02-20T02:19:45.340Z,13.70
2019-02-20T02:22:13.016Z,15.03
2019-02-20T02:24:40.585Z,16.67
2019-02-20T02:27:08.125Z,10.80
2019-02-20T02:29:35.719Z,12.70
2019-02-20T02:32:05.485Z,14.53
2019-02-20T02:34:36.012Z,14.03
2019-02-20T02:37:03.548Z,14.87
2019-02-20T02:39:31.432Z,11.50
2019-02-20T02:41:58.979Z,13.47
2019-02-20T02:44:26.560Z,14.37
2019-02-20T02:46:54.167Z,15.97
2019-02-20T02:49:24.698Z,13.37
2019-02-20T02:51:52.897Z,15.23
2019-02-20T02:54:20.572Z,16.83
2019-02-20T02:56:48.030Z,12.87
2019-02-20T02:59:15.500Z,13.97
2019-02-20T03:01:43.114Z,13.90
2019-02-20T03:04:10.532Z,11.20
2019-02-20T03:06:38.614Z,11.90
2019-02-20T03:09:07.168Z,16.87
2019-02-20T03:11:35.410Z,12.90
2019-02-20T03:14:03.274Z,16.63
2019-02-20T03:16:31.621Z,15.50
2019-02-20T03:18:59.813Z,16.20
2019-02-20T03:21:28.015Z,11.53
2019-02-20T03:23:55.796Z,15.97
2019-02-20T03:26:23.575Z,17.17
2019-02-20T03:28:56.065Z,17.27
2019-02-20T03:31:23.846Z,13.37
2019-02-20T03:33:57.583Z,14.57
2019-02-20T03:36:25.612Z,12.70
2019-02-20T03:38:53.312Z,15.17
2019-02-20T03:41:21.892Z,12.37
2019-02-20T03:43:50.080Z,13.30
2019-02-20T03:46:17.935Z,13.93
2019-02-20T03:48:45.799Z,14.93
2019-02-20T03:51:13.711Z,17.03
2019-02-20T03:53:51.254Z,16.87
2019-02-20T03:56:12.598Z,18.07
2019-02-20T03:58:41.146Z,11.97
2019-02-20T04:01:08.836Z,17.87
2019-02-20T04:03:36.584Z,14.27
2019-02-20T04:06:04.814Z,16.70
2019-02-20T04:08:34.408Z,15.53
2019-02-20T04:11:03.741Z,14.97
2019-02-20T04:13:31.547Z,15.83
2019-02-20T04:16:01.735Z,16.57
2019-02-20T04:18:30.051Z,18.13
2019-02-20T04:20:57.672Z,19.03
2019-02-20T04:23:26.719Z,16.70
2019-02-20T04:25:55.069Z,12.80
2019-02-20T04:28:22.702Z,14.20
2019-02-20T04:30:50.501Z,15.77
2019-02-20T04:33:18.437Z,14.13
2019-02-20T04:35:46.087Z,15.03
2019-02-20T04:38:14.051Z,14.50
2019-02-20T04:40:42.554Z,15.23
2019-02-20T04:43:10.574Z,16.00
2019-02-20T04:45:39.897Z,14.20
2019-02-20T04:48:08.372Z,16.60
2019-02-20T04:50:35.985Z,15.73
2019-02-20T04:53:04.242Z,17.97
2019-02-20T04:55:32.177Z,18.77
2019-02-20T04:58:13.487Z,17.60
2019-02-20T05:00:41.246Z,14.70
2019-02-20T05:03:09.207Z,15.83
2019-02-20T05:05:36.699Z,21.57
2019-02-20T05:08:05.107Z,21.33
2019-02-20T05:10:32.890Z,21.67
2019-02-20T05:13:01.331Z,19.27
2019-02-20T05:18:07.805Z,18.53
2019-02-20T05:20:35.801Z,17.07
2019-02-20T05:23:03.604Z,23.63
2019-02-20T05:25:33.775Z,14.90
2019-02-20T05:28:01.457Z,19.73
2019-02-20T05:30:33.617Z,19.30
2019-02-20T05:33:01.633Z,21.33
2019-02-20T05:35:30.677Z,19.93
2019-02-20T05:37:58.831Z,17.73
2019-02-20T05:40:26.512Z,17.17
2019-02-20T05:42:54.463Z,19.43
2019-02-20T05:45:22.369Z,19.90
2019-02-20T05:47:50.511Z,19.07
2019-02-20T05:50:18.603Z,19.27
2019-02-20T05:52:46.440Z,19.00
2019-02-20T05:55:14.743Z,23.50
2019-02-20T05:57:43.032Z,20.63
2019-02-20T06:00:11.151Z,17.07
2019-02-20T06:02:41.224Z,17.87
2019-02-20T06:05:08.947Z,17.73
2019-02-20T06:07:36.688Z,20.13
2019-02-20T06:10:04.694Z,20.87
2019-02-20T06:12:33.578Z,18.13
2019-02-20T06:15:01.605Z,24.83
2019-02-20T06:17:29.233Z,23.80
2019-02-20T06:19:57.211Z,20.83
2019-02-20T06:22:25.386Z,24.40
2019-02-20T06:24:52.972Z,17.63
2019-02-20T06:27:20.706Z,22.53
2019-02-20T06:29:48.697Z,20.77
2019-02-20T06:32:16.727Z,22.60
2019-02-20T06:34:44.744Z,18.43
2019-02-20T06:37:12.658Z,22.70
2019-02-20T06:39:40.300Z,21.50
2019-02-20T06:42:07.825Z,25.60
2019-02-20T06:44:35.584Z,22.80
2019-02-20T06:49:30.410Z,28.03
2019-02-20T06:51:57.974Z,19.10
2019-02-20T06:54:25.650Z,20.63
2019-02-20T06:56:53.207Z,22.13
2019-02-20T06:59:20.734Z,24.63
2019-02-20T07:01:48.292Z,28.30
2019-02-20T07:04:15.875Z,21.67
2019-02-20T07:07:21.972Z,20.43
2019-02-20T07:10:46.547Z,20.20
2019-02-20T07:13:54.796Z,22.27
2019-02-20T07:17:00.054Z,23.87
2019-02-20T07:19:33.494Z,27.17
2019-02-20T07:22:38.598Z,23.97
2019-02-20T07:25:22.469Z,26.17
2019-02-20T07:28:25.754Z,31.50
2019-02-20T07:30:53.300Z,28.47
2019-02-20T07:33:20.891Z,30.37
2019-02-20T07:35:48.360Z,27.30
2019-02-20T07:38:15.962Z,23.50
2019-02-20T07:40:43.947Z,27.70
2019-02-20T07:43:11.516Z,27.67
2019-02-20T07:45:39.511Z,26.77
2019-02-20T07:48:07.353Z,23.97
2019-02-20T07:50:35.375Z,29.07
2019-02-20T07:53:03.371Z,34.70
2019-02-20T07:55:30.926Z,21.10
2019-02-20T07:57:59.368Z,25.53
2019-02-20T08:00:27.081Z,23.70
2019-02-20T08:02:54.961Z,24.47
2019-02-20T08:05:22.457Z,26.30
2019-02-20T08:07:50.139Z,21.93
2019-02-20T08:10:17.745Z,22.20
2019-02-20T08:12:45.358Z,24.87
2019-02-20T08:15:13.134Z,26.20
2019-02-20T08:17:40.783Z,26.43
2019-02-20T08:20:10.236Z,22.83
2019-02-20T08:22:37.751Z,21.40
2019-02-20T08:25:05.820Z,27.63
2019-02-20T08:27:33.851Z,20.27
2019-02-20T08:30:01.522Z,22.87
2019-02-20T08:32:30.314Z,21.17
2019-02-20T08:34:57.881Z,22.63
2019-02-20T08:37:25.821Z,22.47
2019-02-20T08:39:53.425Z,24.90
2019-02-20T08:42:21.064Z,20.93
2019-02-20T08:44:48.777Z,23.93
2019-02-20T08:47:16.262Z,22.43
2019-02-20T08:49:43.891Z,20.40
2019-02-20T08:52:11.469Z,20.50
2019-02-20T08:54:38.935Z,19.80
2019-02-20T08:57:06.436Z,19.13
2019-02-20T08:59:34.623Z,23.00
2019-02-20T09:02:02.497Z,20.87
2019-02-20T09:04:30.227Z,25.27
2019-02-20T09:06:57.994Z,20.43
2019-02-20T09:09:25.681Z,19.83
2019-02-20T09:11:53.231Z,18.97
2019-02-20T09:14:20.761Z,18.57
2019-02-20T09:16:49.362Z,18.90
2019-02-20T09:19:16.924Z,21.57
2019-02-20T09:21:44.545Z,19.70
2019-02-20T09:24:12.098Z,17.50
2019-02-20T09:26:39.695Z,26.23
2019-02-20T09:29:07.242Z,20.80
2019-02-20T09:31:35.124Z,15.93
2019-02-20T09:34:02.734Z,18.70
2019-02-20T09:36:30.787Z,17.70
2019-02-20T09:39:33.667Z,17.47
2019-02-20T09:42:01.963Z,16.87
2019-02-20T09:44:33.739Z,17.80
2019-02-20T09:47:01.356Z,14.93
2019-02-20T09:49:28.886Z,20.17
2019-02-20T09:51:56.440Z,16.60
2019-02-20T09:54:23.929Z,19.07
2019-02-20T09:56:51.888Z,16.43
2019-02-20T09:59:21.498Z,18.50
2019-02-20T10:01:49.080Z,19.87
2019-02-20T10:04:16.819Z,13.90
2019-02-20T10:06:44.788Z,12.07
2019-02-20T10:09:13.238Z,20.17
2019-02-20T10:11:41.045Z,15.97
2019-02-20T10:14:09.522Z,15.77
2019-02-20T10:16:37.218Z,16.70
2019-02-20T10:19:05.042Z,15.70
2019-02-20T10:24:00.818Z,12.83
2019-02-20T10:26:28.451Z,20.03
2019-02-20T10:28:57.145Z,13.17
2019-02-20T10:31:24.748Z,15.03
2019-02-20T10:33:52.283Z,14.17
2019-02-20T10:36:19.820Z,14.40
2019-02-20T10:38:47.295Z,15.73
2019-02-20T10:41:15.127Z,11.37
2019-02-20T10:43:42.513Z,16.63
2019-02-20T10:46:10.292Z,15.17
2019-02-20T10:48:38.187Z,15.67
2019-02-20T10:51:05.546Z,15.53
2019-02-20T10:53:33.011Z,16.83
2019-02-20T10:56:08.944Z,13.33
2019-02-20T10:58:29.729Z,13.87
2019-02-20T11:00:57.517Z,14.83
2019-02-20T11:03:25.420Z,13.83
2019-02-20T11:05:52.771Z,16.17
2019-02-20T11:08:20.543Z,17.03
2019-02-20T11:10:47.985Z,13.40
2019-02-20T11:13:15.554Z,15.50
2019-02-20T11:15:42.894Z,14.93
2019-02-20T11:18:10.271Z,11.93
2019-02-20T11:20:37.781Z,12.70
2019-02-20T11:23:05.095Z,12.23
2019-02-20T11:25:32.533Z,16.33
2019-02-20T11:27:59.925Z,11.47
2019-02-20T11:30:27.442Z,9.47
2019-02-20T11:32:55.042Z,9.00
2019-02-20T11:35:22.441Z,11.47
2019-02-20T11:37:49.881Z,9.47
2019-02-20T11:40:17.324Z,10.83
2019-02-20T11:42:44.723Z,11.47
2019-02-20T11:45:12.850Z,10.80
2019-02-20T11:47:41.197Z,14.47
2019-02-20T11:50:09.029Z,9.17
2019-02-20T11:52:38.353Z,12.97
2019-02-20T11:55:06.109Z,20.33
2019-02-20T11:57:33.546Z,9.37
2019-02-20T12:00:00.989Z,12.10
2019-02-20T12:02:28.651Z,12.33
2019-02-20T12:04:56.939Z,8.10
2019-02-20T12:07:24.847Z,11.63
2019-02-20T12:09:52.419Z,11.03
2019-02-20T12:12:20.102Z,11.13
2019-02-20T12:14:47.871Z,9.40
2019-02-20T12:17:15.608Z,8.47
2019-02-20T12:19:43.621Z,12.87
2019-02-20T12:22:11.391Z,12.23
2019-02-20T12:24:38.888Z,7.73
2019-02-20T12:27:06.432Z,11.70
2019-02-20T12:29:33.937Z,11.07
2019-02-20T12:32:01.657Z,10.07
2019-02-20T12:34:29.548Z,11.30
2019-02-20T12:36:57.066Z,13.00
2019-02-20T12:39:24.838Z,11.70
2019-02-20T12:41:52.283Z,11.00
2019-02-20T12:44:20.027Z,8.83
2019-02-20T12:46:49.991Z,10.23
2019-02-20T12:49:17.746Z,10.80
2019-02-20T12:51:45.585Z,10.53
2019-02-20T12:54:13.203Z,14.37
2019-02-20T12:56:43.874Z,8.10
2019-02-20T12:59:10.552Z,8.40
2019-02-20T13:01:38.226Z,9.90
2019-02-20T13:04:05.653Z,12.10
2019-02-20T13:06:34.423Z,13.20
2019-02-20T13:09:04.254Z,8.00
2019-02-20T13:11:33.057Z,9.03
2019-02-20T13:14:00.603Z,12.00
2019-02-20T13:16:28.469Z,8.63
2019-02-20T13:18:55.999Z,11.37
2019-02-20T13:21:23.494Z,10.00
2019-02-20T13:23:50.932Z,9.90
2019-02-20T13:26:18.298Z,10.80
2019-02-20T13:28:45.743Z,9.77
2019-02-20T13:31:13.164Z,14.70
2019-02-20T13:33:40.615Z,11.30
2019-02-20T13:36:08.254Z,10.97
2019-02-20T13:38:35.684Z,9.87
2019-02-20T13:41:03.367Z,9.73
2019-02-20T13:43:30.964Z,7.97
2019-02-20T13:45:58.542Z,8.83
2019-02-20T13:48:25.933Z,7.70
2019-02-20T13:50:53.353Z,9.33
2019-02-20T13:53:20.988Z,9.70
2019-02-20T13:55:48.434Z,10.07
2019-02-20T13:58:17.696Z,9.63
2019-02-20T14:00:45.086Z,8.67
2019-02-20T14:03:13.186Z,9.13
2019-02-20T14:05:40.707Z,9.67
2019-02-20T14:08:08.144Z,8.33
2019-02-20T14:10:35.584Z,8.50
2019-02-20T14:13:03.014Z,8.40
2019-02-20T14:15:30.425Z,8.40
2019-02-20T14:17:57.932Z,7.33
2019-02-20T14:20:27.890Z,9.03
2019-02-20T14:22:55.419Z,7.63
2019-02-20T14:25:22.884Z,8.50
2019-02-20T14:27:50.300Z,7.97
2019-02-20T14:30:17.812Z,8.43
2019-02-20T14:32:45.257Z,10.53
2019-02-20T14:35:12.710Z,9.17
2019-02-20T14:37:41.822Z,9.97
2019-02-20T14:40:09.938Z,12.73
2019-02-20T14:42:37.373Z,8.13
2019-02-20T14:45:05.288Z,8.77
2019-02-20T14:47:33.913Z,9.07
2019-02-20T14:50:01.576Z,6.33
2019-02-20T14:52:29.384Z,10.10
2019-02-20T14:54:56.989Z,8.63
2019-02-20T14:57:24.420Z,8.83
2019-02-20T14:59:52.042Z,10.03
2019-02-20T15:02:20.703Z,6.37
2019-02-20T15:04:48.117Z,9.47
2019-02-20T15:07:15.540Z,8.90
2019-02-20T15:09:42.925Z,7.97
2019-02-20T15:12:10.862Z,8.23
2019-02-20T15:14:38.332Z,8.50
2019-02-20T15:17:05.810Z,7.50
2019-02-20T15:19:33.272Z,6.27
2019-02-20T15:22:01.643Z,10.00
2019-02-20T15:24:29.382Z,7.93
2019-02-20T15:26:56.814Z,9.93
2019-02-20T15:29:24.312Z,8.17
2019-02-20T15:31:52.759Z,7.23
2019-02-20T15:34:21.260Z,9.50
2019-02-20T15:36:49.997Z,10.17
2019-02-20T15:39:17.453Z,12.00
2019-02-20T15:41:44.925Z,10.63
2019-02-20T15:44:12.538Z,11.07
2019-02-20T15:46:39.898Z,9.47
2019-02-20T15:49:07.490Z,10.87
2019-02-20T15:51:34.979Z,13.67
2019-02-20T15:54:02.414Z,11.57
2019-02-20T15:56:29.900Z,14.00
2019-02-20T15:58:57.338Z,11.27
2019-02-20T16:01:24.955Z,12.00
2019-02-20T16:03:52.369Z,12.33
2019-02-20T16:06:21.388Z,14.53
2019-02-20T16:08:48.800Z,12.83
2019-02-20T16:11:16.397Z,10.00
2019-02-20T16:13:44.159Z,9.23
2019-02-20T16:16:11.652Z,11.00
2019-02-20T16:18:39.306Z,11.83
2019-02-20T16:21:06.858Z,9.40
2019-02-20T16:23:34.441Z,12.63
2019-02-20T16:26:02.362Z,10.23
2019-02-20T16:28:33.771Z,18.67
2019-02-20T16:30:59.124Z,37.10
2019-02-20T16:33:26.527Z,15.97
2019-02-20T16:35:54.150Z,11.87
2019-02-20T16:38:22.789Z,11.03
2019-02-20T16:40:50.436Z,16.90
2019-02-20T16:43:18.292Z,14.00
2019-02-20T16:45:45.857Z,11.63
2019-02-20T16:50:54.199Z,14.37
2019-02-20T16:53:21.750Z,9.40
2019-02-20T16:55:49.241Z,11.60
2019-02-20T16:58:17.251Z,10.60
2019-02-20T17:00:44.846Z,11.30
2019-02-20T17:03:12.528Z,12.37
2019-02-20T17:05:40.066Z,10.10
2019-02-20T17:08:07.676Z,11.67
2019-02-20T17:10:35.063Z,11.40
2019-02-20T17:13:02.706Z,12.30
2019-02-20T17:15:30.546Z,10.20
2019-02-20T17:17:58.073Z,11.17
2019-02-20T17:20:25.742Z,13.17
2019-02-20T17:22:53.363Z,13.63
2019-02-20T17:25:21.290Z,10.30
2019-02-20T17:27:48.674Z,12.13
2019-02-20T17:30:16.627Z,15.23
2019-02-20T17:32:44.491Z,14.47
2019-02-20T17:35:11.989Z,20.13
2019-02-20T17:37:39.398Z,20.87
2019-02-20T17:40:07.522Z,18.20
2019-02-20T17:42:34.920Z,19.90
2019-02-20T17:45:02.512Z,18.57
2019-02-20T17:47:31.344Z,18.33
2019-02-20T17:49:59.100Z,17.37
2019-02-20T17:52:27.014Z,19.43
2019-02-20T17:54:57.242Z,19.37
2019-02-20T17:57:24.946Z,16.77
2019-02-20T17:59:53.534Z,14.57
2019-02-20T18:02:20.902Z,21.07
2019-02-20T18:04:48.346Z,20.20
2019-02-20T18:07:17.165Z,16.63
2019-02-20T18:09:44.710Z,14.27
2019-02-20T18:12:12.060Z,16.37
2019-02-20T18:14:40.759Z,16.57
2019-02-20T18:17:08.216Z,16.90
2019-02-20T18:19:35.659Z,17.47
2019-02-20T18:22:03.086Z,14.87
2019-02-20T18:24:30.510Z,12.27
2019-02-20T18:26:57.904Z,18.80
2019-02-20T18:29:25.359Z,18.07
2019-02-20T18:31:52.779Z,15.93
2019-02-20T18:34:20.208Z,14.23
2019-02-20T18:36:47.609Z,13.33
2019-02-20T18:39:15.067Z,17.17
2019-02-20T18:44:38.803Z,17.87
2019-02-20T18:47:08.716Z,22.63
2019-02-20T18:49:36.384Z,12.50
2019-02-20T18:52:04.148Z,15.50
2019-02-20T18:54:31.887Z,13.17
2019-02-20T18:56:59.584Z,13.43
2019-02-20T18:59:27.386Z,12.63
2019-02-20T19:01:55.070Z,14.10
2019-02-20T19:04:25.823Z,12.40
2019-02-20T19:06:53.567Z,15.10
2019-02-20T19:09:28.839Z,14.50
2019-02-20T19:12:25.131Z,13.67
2019-02-20T19:15:28.205Z,13.80
2019-02-20T19:19:02.979Z,12.30
2019-02-20T19:22:02.518Z,11.10
2019-02-20T19:25:26.867Z,12.93
2019-02-20T19:28:43.817Z,14.70
2019-02-20T19:31:48.755Z,13.70
2019-02-20T19:34:45.493Z,11.10
2019-02-20T19:41:52.857Z,12.10
2019-02-20T19:44:34.248Z,11.87
2019-02-20T19:47:25.591Z,12.97
2019-02-20T19:50:13.741Z,14.53
2019-02-20T19:53:08.651Z,12.93
2019-02-20T19:56:19.565Z,16.53
2019-02-20T19:59:37.357Z,10.77
2019-02-20T20:02:51.939Z,13.73
2019-02-20T20:06:18.837Z,14.20
2019-02-20T20:09:46.335Z,11.27
2019-02-20T20:13:14.267Z,14.63
2019-02-20T20:16:45.237Z,15.33
2019-02-20T20:19:58.113Z,13.67
2019-02-20T20:23:09.702Z,14.17
2019-02-20T20:26:19.667Z,14.70
2019-02-20T20:29:33.043Z,17.20
2019-02-20T20:32:39.666Z,16.00
2019-02-20T20:35:58.694Z,17.23
2019-02-20T20:42:47.658Z,19.13
2019-02-20T20:46:50.465Z,18.00
2019-02-20T20:50:05.765Z,16.63
2019-02-20T20:53:23.238Z,15.93
2019-02-20T20:56:36.346Z,16.20
2019-02-20T20:59:41.703Z,20.90
2019-02-20T21:02:13.137Z,17.20
2019-02-20T21:05:50.336Z,14.90
2019-02-20T21:08:34.190Z,16.47
2019-02-20T21:11:43.875Z,18.60
2019-02-20T21:14:43.027Z,15.40
2019-02-20T21:18:08.024Z,18.43
2019-02-20T21:21:20.061Z,20.50
2019-02-20T21:24:20.009Z,20.70
2019-02-20T21:27:53.139Z,19.43
2019-02-20T21:38:35.286Z,17.07
2019-02-20T21:41:45.233Z,18.67
2019-02-20T21:44:50.956Z,16.30
2019-02-20T21:48:06.803Z,20.40
2019-02-20T21:51:01.696Z,19.70
2019-02-20T21:54:22.371Z,17.40
2019-02-20T21:57:23.345Z,17.57
2019-02-20T22:00:57.484Z,15.67
2019-02-20T22:03:48.423Z,23.50
2019-02-20T22:06:30.201Z,23.20
2019-02-20T22:09:15.442Z,22.23
2019-02-20T22:12:04.685Z,21.30
2019-02-20T22:15:10.211Z,21.97
2019-02-20T22:17:56.368Z,20.40
2019-02-20T22:20:54.341Z,22.07
2019-02-20T22:23:58.605Z,18.10
2019-02-20T22:26:57.275Z,26.53
2019-02-20T22:29:55.335Z,17.00
2019-02-20T22:32:59.891Z,19.47
2019-02-20T22:36:30.838Z,18.77
2019-02-20T22:39:16.473Z,21.50
2019-02-20T22:42:21.656Z,19.93
2019-02-20T22:45:17.307Z,19.27
2019-02-20T22:48:23.629Z,18.80
2019-02-20T22:51:27.967Z,20.30
2019-02-20T22:54:32.957Z,17.50
2019-02-20T22:57:28.164Z,17.17
2019-02-20T23:00:48.062Z,15.27
2019-02-20T23:03:24.971Z,21.23
2019-02-20T23:06:45.751Z,21.50
2019-02-20T23:10:19.579Z,20.10
2019-02-20T23:13:19.478Z,18.13
2019-02-20T23:15:47.587Z,20.70
2019-02-20T23:18:19.630Z,22.83
2019-02-20T23:20:47.574Z,21.20
2019-02-20T23:23:15.785Z,19.00
2019-02-20T23:25:46.824Z,17.93
2019-02-20T23:28:14.846Z,20.17
2019-02-20T23:30:45.002Z,18.87
2019-02-20T23:33:12.506Z,19.37
2019-02-20T23:35:43.319Z,20.33
2019-02-20T23:38:12.792Z,20.03
2019-02-20T23:40:47.039Z,21.40
2019-02-20T23:43:14.826Z,20.87
2019-02-20T23:45:42.755Z,20.20
2019-02-20T23:48:13.542Z,24.30
2019-02-20T23:50:43.490Z,20.57
2019-02-20T23:53:15.743Z,22.87
2019-02-20T23:55:43.415Z,21.50
2019-02-20T23:58:11.309Z,22.17
